createdAt,value
2023-03-18T00:00:44.252Z,3.48
2023-03-18T00:01:44.187Z,3.52
2023-03-18T00:02:44.241Z,3.54
2023-03-18T00:03:44.238Z,3.50
2023-03-18T00:04:44.144Z,3.48
2023-03-18T00:05:44.134Z,3.33
2023-03-18T00:06:44.158Z,3.32
2023-03-18T00:07:44.146Z,3.36
2023-03-18T00:08:44.077Z,3.35
2023-03-18T00:09:44.072Z,3.36
2023-03-18T00:10:44.072Z,3.40
2023-03-18T00:11:44.090Z,3.36
2023-03-18T00:12:44.064Z,3.39
2023-03-18T00:13:44.067Z,3.31
2023-03-18T00:14:44.008Z,3.28
2023-03-18T00:15:44.087Z,3.29
2023-03-18T00:16:44.002Z,3.35
2023-03-18T00:17:44.030Z,3.21
2023-03-18T00:18:43.998Z,3.15
2023-03-18T00:19:43.948Z,3.00
2023-03-18T00:20:43.942Z,2.95
2023-03-18T00:21:43.949Z,2.97
2023-03-18T00:22:44.027Z,2.93
2023-03-18T00:23:43.979Z,2.89
2023-03-18T00:24:43.949Z,2.95
2023-03-18T00:25:43.884Z,2.84
2023-03-18T00:26:43.878Z,2.82
2023-03-18T00:27:43.910Z,2.84
2023-03-18T00:28:43.904Z,2.92
2023-03-18T00:29:43.984Z,2.92
2023-03-18T00:30:43.884Z,2.89
2023-03-18T00:31:43.912Z,2.84
2023-03-18T00:32:43.893Z,2.89
2023-03-18T00:33:43.895Z,2.81
2023-03-18T00:34:43.914Z,2.85
2023-03-18T00:35:43.834Z,2.77
2023-03-18T00:36:43.821Z,2.78
2023-03-18T00:37:43.799Z,2.85
2023-03-18T00:38:43.815Z,2.89
2023-03-18T00:39:43.739Z,2.92
2023-03-18T00:40:43.753Z,2.90
2023-03-18T00:41:43.748Z,2.89
2023-03-18T00:42:43.694Z,2.85
2023-03-18T00:43:43.693Z,2.69
2023-03-18T00:44:43.782Z,2.74
2023-03-18T00:45:43.699Z,2.72
2023-03-18T00:46:43.764Z,2.72
2023-03-18T00:47:43.699Z,2.78
2023-03-18T00:48:43.635Z,2.74
2023-03-18T00:49:43.642Z,2.71
2023-03-18T00:50:43.620Z,2.67
2023-03-18T00:51:43.646Z,2.64
2023-03-18T00:52:43.684Z,2.67
2023-03-18T00:53:43.636Z,2.66
2023-03-18T00:54:43.562Z,2.63
2023-03-18T00:55:43.559Z,2.66
2023-03-18T00:56:43.617Z,2.72
2023-03-18T00:57:43.560Z,2.66
2023-03-18T00:58:43.570Z,2.67
2023-03-18T00:59:43.512Z,2.61
2023-03-18T01:00:43.700Z,2.77
2023-03-18T01:01:43.623Z,2.63
2023-03-18T01:02:43.522Z,2.72
2023-03-18T01:03:43.523Z,2.69
2023-03-18T01:04:43.504Z,2.75
2023-03-18T01:05:43.499Z,2.72
2023-03-18T01:06:43.633Z,2.79
2023-03-18T01:07:43.441Z,2.78
2023-03-18T01:08:43.440Z,2.74
2023-03-18T01:09:43.449Z,2.77
2023-03-18T01:10:43.382Z,2.64
2023-03-18T01:11:43.455Z,2.66
2023-03-18T01:12:43.368Z,2.71
2023-03-18T01:13:43.383Z,2.72
2023-03-18T01:14:43.370Z,2.67
2023-03-18T01:15:43.386Z,2.77
2023-03-18T01:16:43.400Z,2.72
2023-03-18T01:17:43.384Z,2.72
2023-03-18T01:18:43.291Z,2.82
2023-03-18T01:19:43.299Z,2.64
2023-03-18T01:20:43.337Z,2.69
2023-03-18T01:21:43.303Z,2.63
2023-03-18T01:22:43.256Z,2.71
2023-03-18T01:23:43.243Z,2.66
2023-03-18T01:24:43.248Z,2.66
2023-03-18T01:25:43.240Z,2.69
2023-03-18T01:26:43.258Z,2.59
2023-03-18T01:27:43.225Z,2.64
2023-03-18T01:28:43.227Z,2.54
2023-03-18T01:29:43.579Z,2.57
2023-03-18T01:30:43.183Z,2.39
2023-03-18T01:31:43.221Z,2.45
2023-03-18T01:32:43.199Z,2.42
2023-03-18T01:33:43.178Z,2.41
2023-03-18T01:34:43.194Z,2.49
2023-03-18T01:35:43.150Z,2.45
2023-03-18T01:36:43.115Z,2.46
2023-03-18T01:37:43.121Z,2.42
2023-03-18T01:38:43.088Z,2.35
2023-03-18T01:39:43.058Z,2.36
2023-03-18T01:40:43.066Z,2.35
2023-03-18T01:41:43.601Z,2.35
2023-03-18T01:42:43.088Z,2.27
2023-03-18T01:43:43.109Z,2.23
2023-03-18T01:44:43.018Z,2.23
2023-03-18T01:45:43.051Z,2.12
2023-03-18T01:46:43.091Z,2.16
2023-03-18T01:47:42.984Z,2.14
2023-03-18T01:48:42.991Z,2.16
2023-03-18T01:49:42.974Z,2.16
2023-03-18T01:50:42.929Z,2.17
2023-03-18T01:51:43.022Z,2.16
2023-03-18T01:52:43.009Z,2.14
2023-03-18T01:53:42.918Z,2.06
2023-03-18T01:54:42.943Z,2.14
2023-03-18T01:55:42.919Z,2.12
2023-03-18T01:56:42.858Z,2.17
2023-03-18T01:57:42.848Z,2.18
2023-03-18T01:58:42.880Z,2.12
2023-03-18T01:59:42.971Z,2.16
2023-03-18T02:00:42.908Z,2.21
2023-03-18T02:01:42.806Z,2.12
2023-03-18T02:02:42.794Z,2.10
2023-03-18T02:03:42.967Z,2.07
2023-03-18T02:04:42.835Z,1.91
2023-03-18T02:05:42.824Z,1.87
2023-03-18T02:06:42.807Z,1.98
2023-03-18T02:07:42.743Z,1.95
2023-03-18T02:08:42.741Z,1.88
2023-03-18T02:09:42.724Z,1.88
2023-03-18T02:10:42.769Z,1.79
2023-03-18T02:11:42.785Z,1.73
2023-03-18T02:12:42.741Z,1.68
2023-03-18T02:13:42.691Z,1.72
2023-03-18T02:14:42.660Z,1.65
2023-03-18T02:15:42.661Z,1.69
2023-03-18T02:16:42.799Z,1.63
2023-03-18T02:17:42.672Z,1.69
2023-03-18T02:18:42.613Z,1.66
2023-03-18T02:19:42.686Z,1.70
2023-03-18T02:20:42.614Z,1.66
2023-03-18T02:21:42.687Z,1.69
2023-03-18T02:22:42.605Z,1.69
2023-03-18T02:23:42.683Z,1.72
2023-03-18T02:24:42.542Z,1.68
2023-03-18T02:25:42.562Z,1.77
2023-03-18T02:26:42.554Z,1.84
2023-03-18T02:27:42.549Z,1.77
2023-03-18T02:28:42.619Z,1.72
2023-03-18T02:29:42.488Z,1.70
2023-03-18T02:30:42.623Z,1.72
2023-03-18T02:31:42.493Z,1.66
2023-03-18T02:32:42.631Z,1.63
2023-03-18T02:33:42.482Z,1.55
2023-03-18T02:34:42.483Z,1.65
2023-03-18T02:35:42.503Z,1.66
2023-03-18T02:36:42.467Z,1.65
2023-03-18T02:37:42.441Z,1.72
2023-03-18T02:38:42.414Z,1.70
2023-03-18T02:39:42.409Z,1.69
2023-03-18T02:40:42.413Z,1.62
2023-03-18T02:41:42.352Z,1.62
2023-03-18T02:42:42.350Z,1.62
2023-03-18T02:43:42.436Z,1.58
2023-03-18T02:44:42.337Z,1.54
2023-03-18T02:45:42.402Z,1.59
2023-03-18T02:46:42.345Z,1.54
2023-03-18T02:47:42.305Z,1.47
2023-03-18T02:48:42.336Z,1.54
2023-03-18T02:49:42.297Z,1.45
2023-03-18T02:50:42.558Z,1.45
2023-03-18T02:51:42.266Z,1.48
2023-03-18T02:52:42.231Z,1.51
2023-03-18T02:53:42.256Z,1.52
2023-03-18T02:54:42.254Z,1.42
2023-03-18T02:55:42.242Z,1.48
2023-03-18T02:56:42.218Z,1.50
2023-03-18T02:57:42.198Z,1.41
2023-03-18T02:58:42.172Z,1.41
2023-03-18T02:59:42.179Z,1.33
2023-03-18T03:00:42.163Z,1.33
2023-03-18T03:01:42.203Z,1.40
2023-03-18T03:02:42.438Z,1.36
2023-03-18T03:03:42.227Z,1.34
2023-03-18T03:04:42.097Z,1.47
2023-03-18T03:05:42.166Z,1.48
2023-03-18T03:06:42.099Z,1.51
2023-03-18T03:07:42.107Z,1.47
2023-03-18T03:08:42.123Z,1.47
2023-03-18T03:09:42.063Z,1.48
2023-03-18T03:10:42.132Z,1.54
2023-03-18T03:11:42.047Z,1.37
2023-03-18T03:12:42.069Z,1.30
2023-03-18T03:13:42.048Z,1.36
2023-03-18T03:14:42.048Z,1.41
2023-03-18T03:15:42.028Z,1.47
2023-03-18T03:16:41.994Z,1.37
2023-03-18T03:17:41.978Z,1.55
2023-03-18T03:18:41.980Z,1.58
2023-03-18T03:19:41.981Z,1.55
2023-03-18T03:20:41.934Z,1.52
2023-03-18T03:21:42.643Z,1.58
2023-03-18T03:22:41.924Z,1.55
2023-03-18T03:23:41.922Z,1.62
2023-03-18T03:24:41.942Z,1.59
2023-03-18T03:25:41.977Z,1.60
2023-03-18T03:26:41.931Z,1.63
2023-03-18T03:27:41.865Z,1.63
2023-03-18T03:28:41.879Z,1.66
2023-03-18T03:29:41.854Z,1.65
2023-03-18T03:30:41.887Z,1.65
2023-03-18T03:31:41.880Z,1.65
2023-03-18T03:32:41.891Z,1.68
2023-03-18T03:33:41.793Z,1.63
2023-03-18T03:34:41.787Z,1.68
2023-03-18T03:35:41.885Z,1.79
2023-03-18T03:36:41.796Z,1.73
2023-03-18T03:37:41.729Z,1.70
2023-03-18T03:38:41.778Z,1.69
2023-03-18T03:39:41.714Z,1.79
2023-03-18T03:40:41.722Z,1.76
2023-03-18T03:41:41.754Z,1.69
2023-03-18T03:42:41.736Z,1.73
2023-03-18T03:43:41.764Z,1.77
2023-03-18T03:44:41.749Z,1.80
2023-03-18T03:45:41.660Z,1.88
2023-03-18T03:46:41.700Z,1.81
2023-03-18T03:47:41.661Z,1.91
2023-03-18T03:48:41.676Z,1.81
2023-03-18T03:49:41.641Z,1.90
2023-03-18T03:50:41.614Z,1.90
2023-03-18T03:51:41.605Z,1.99
2023-03-18T03:52:41.621Z,1.95
2023-03-18T03:53:41.607Z,1.93
2023-03-18T03:54:41.579Z,1.88
2023-03-18T03:55:41.539Z,1.83
2023-03-18T03:56:41.615Z,1.91
2023-03-18T03:57:41.581Z,1.91
2023-03-18T03:58:41.538Z,1.84
2023-03-18T03:59:41.541Z,1.91
2023-03-18T04:00:41.469Z,1.91
2023-03-18T04:01:41.482Z,1.81
2023-03-18T04:02:41.502Z,1.88
2023-03-18T04:03:41.462Z,1.93
2023-03-18T04:04:41.477Z,1.91
2023-03-18T04:05:41.415Z,1.98
2023-03-18T04:06:41.422Z,1.95
2023-03-18T04:07:41.495Z,1.93
2023-03-18T04:08:41.496Z,1.91
2023-03-18T04:09:41.399Z,2.02
2023-03-18T04:10:41.399Z,1.98
2023-03-18T04:11:41.347Z,1.80
2023-03-18T04:12:41.346Z,1.98
2023-03-18T04:13:41.356Z,1.93
2023-03-18T04:14:41.344Z,1.95
2023-03-18T04:15:41.351Z,1.95
2023-03-18T04:16:41.340Z,1.84
2023-03-18T04:17:41.288Z,1.86
2023-03-18T04:18:41.355Z,1.86
2023-03-18T04:19:41.294Z,1.80
2023-03-18T04:20:41.335Z,1.95
2023-03-18T04:21:41.278Z,2.02
2023-03-18T04:22:41.245Z,2.03
2023-03-18T04:23:41.212Z,2.03
2023-03-18T04:24:41.225Z,2.00
2023-03-18T04:25:41.207Z,2.00
2023-03-18T04:26:41.219Z,2.02
2023-03-18T04:27:41.212Z,1.88
2023-03-18T04:28:41.212Z,2.00
2023-03-18T04:29:41.208Z,2.02
2023-03-18T04:30:41.132Z,1.88
2023-03-18T04:31:41.200Z,1.95
2023-03-18T04:32:41.277Z,1.95
2023-03-18T04:33:41.117Z,2.05
2023-03-18T04:34:41.091Z,2.09
2023-03-18T04:35:41.172Z,2.07
2023-03-18T04:36:41.160Z,2.03
2023-03-18T04:37:41.075Z,2.07
2023-03-18T04:38:41.070Z,2.03
2023-03-18T04:39:41.089Z,2.09
2023-03-18T04:40:41.102Z,2.03
2023-03-18T04:41:41.016Z,2.07
2023-03-18T04:42:41.024Z,1.95
2023-03-18T04:43:41.026Z,2.03
2023-03-18T04:44:41.012Z,2.09
2023-03-18T04:45:41.038Z,2.10
2023-03-18T04:46:41.053Z,2.07
2023-03-18T04:47:41.013Z,2.05
2023-03-18T04:48:40.948Z,2.12
2023-03-18T04:49:40.942Z,2.10
2023-03-18T04:50:40.968Z,2.07
2023-03-18T04:51:40.916Z,2.10
2023-03-18T04:52:40.908Z,2.09
2023-03-18T04:53:40.897Z,2.14
2023-03-18T04:54:40.876Z,2.14
2023-03-18T04:55:40.885Z,2.16
2023-03-18T04:56:40.905Z,2.12
2023-03-18T04:57:40.869Z,2.10
2023-03-18T04:58:40.846Z,2.09
2023-03-18T04:59:40.824Z,2.20
2023-03-18T05:00:40.851Z,2.20
2023-03-18T05:01:40.821Z,2.30
2023-03-18T05:02:40.840Z,2.27
2023-03-18T05:03:40.852Z,2.23
2023-03-18T05:04:40.791Z,2.23
2023-03-18T05:05:40.786Z,2.25
2023-03-18T05:06:40.782Z,2.27
2023-03-18T05:07:40.781Z,2.27
2023-03-18T05:08:40.793Z,2.21
2023-03-18T05:09:41.151Z,2.18
2023-03-18T05:10:40.694Z,2.14
2023-03-18T05:11:40.715Z,2.12
2023-03-18T05:12:40.717Z,2.05
2023-03-18T05:13:40.718Z,2.10
2023-03-18T05:14:40.634Z,2.07
2023-03-18T05:15:40.660Z,2.16
2023-03-18T05:16:40.758Z,2.02
2023-03-18T05:17:40.798Z,2.09
2023-03-18T05:18:40.643Z,2.07
2023-03-18T05:19:40.640Z,2.18
2023-03-18T05:20:40.573Z,2.10
2023-03-18T05:21:40.576Z,2.14
2023-03-18T05:22:40.578Z,2.14
2023-03-18T05:23:40.580Z,2.23
2023-03-18T05:24:40.686Z,2.27
2023-03-18T05:25:40.532Z,2.27
2023-03-18T05:26:40.555Z,2.24
2023-03-18T05:27:40.512Z,2.28
2023-03-18T05:28:40.602Z,2.24
2023-03-18T05:29:40.468Z,2.23
2023-03-18T05:30:40.460Z,2.28
2023-03-18T05:31:40.488Z,2.27
2023-03-18T05:32:40.503Z,2.25
2023-03-18T05:33:40.502Z,2.23
2023-03-18T05:34:40.439Z,2.20
2023-03-18T05:35:40.480Z,2.23
2023-03-18T05:36:40.423Z,2.25
2023-03-18T05:37:40.379Z,2.23
2023-03-18T05:38:40.380Z,2.25
2023-03-18T05:39:40.396Z,2.28
2023-03-18T05:40:40.396Z,2.25
2023-03-18T05:41:40.380Z,2.36
2023-03-18T05:42:54.980Z,2.39
2023-03-18T05:43:41.331Z,2.38
2023-03-18T05:44:40.423Z,2.34
2023-03-18T05:45:41.037Z,2.39
2023-03-18T05:46:40.307Z,2.25
2023-03-18T05:47:40.287Z,2.18
2023-03-18T05:48:40.341Z,2.24
2023-03-18T05:49:40.267Z,2.31
2023-03-18T05:50:40.276Z,2.25
2023-03-18T05:51:40.304Z,2.14
2023-03-18T05:52:40.223Z,2.18
2023-03-18T05:53:40.190Z,2.20
2023-03-18T05:54:40.229Z,2.14
2023-03-18T05:55:40.222Z,2.27
2023-03-18T05:56:40.203Z,2.27
2023-03-18T05:57:40.267Z,2.27
2023-03-18T05:58:40.157Z,2.34
2023-03-18T05:59:40.237Z,2.35
2023-03-18T06:00:40.201Z,2.28
2023-03-18T06:01:40.186Z,2.43
2023-03-18T06:02:40.163Z,2.48
2023-03-18T06:03:40.183Z,2.52
2023-03-18T06:04:40.102Z,2.52
2023-03-18T06:05:40.123Z,2.48
2023-03-18T06:06:40.146Z,2.54
2023-03-18T06:07:40.057Z,2.54
2023-03-18T06:08:40.080Z,2.49
2023-03-18T06:09:40.063Z,2.59
2023-03-18T06:10:40.052Z,2.52
2023-03-18T06:11:40.024Z,2.53
2023-03-18T06:12:40.029Z,2.57
2023-03-18T06:13:40.017Z,2.67
2023-03-18T06:14:40.038Z,2.59
2023-03-18T06:15:40.032Z,2.67
2023-03-18T06:16:40.019Z,2.75
2023-03-18T06:17:39.935Z,2.74
2023-03-18T06:18:40.013Z,2.77
2023-03-18T06:19:39.965Z,2.93
2023-03-18T06:20:39.974Z,2.89
2023-03-18T06:21:39.910Z,2.84
2023-03-18T06:22:40.578Z,2.93
2023-03-18T06:23:39.975Z,2.95
2023-03-18T06:24:39.911Z,2.87
2023-03-18T06:25:39.880Z,2.87
2023-03-18T06:26:39.854Z,2.90
2023-03-18T06:27:39.906Z,2.92
2023-03-18T06:28:39.883Z,2.99
2023-03-18T06:29:39.816Z,2.97
2023-03-18T06:30:39.890Z,3.03
2023-03-18T06:31:39.827Z,3.20
2023-03-18T06:32:39.880Z,3.15
2023-03-18T06:33:39.750Z,3.20
2023-03-18T06:34:39.762Z,3.24
2023-03-18T06:35:39.877Z,3.29
2023-03-18T06:36:39.722Z,3.33
2023-03-18T06:37:39.739Z,3.35
2023-03-18T06:38:39.724Z,3.35
2023-03-18T06:39:41.290Z,3.42
2023-03-18T06:40:39.690Z,3.32
2023-03-18T06:41:39.690Z,3.43
2023-03-18T06:42:39.685Z,3.48
2023-03-18T06:43:39.649Z,3.52
2023-03-18T06:44:39.635Z,3.51
2023-03-18T06:45:39.711Z,3.52
2023-03-18T06:46:40.940Z,3.62
2023-03-18T06:47:39.632Z,3.54
2023-03-18T06:48:39.601Z,3.51
2023-03-18T06:49:39.593Z,3.55
2023-03-18T06:50:39.586Z,3.69
2023-03-18T06:51:39.609Z,3.75
2023-03-18T06:52:39.566Z,3.79
2023-03-18T06:53:39.553Z,3.83
2023-03-18T06:54:39.578Z,3.87
2023-03-18T06:55:39.599Z,3.90
2023-03-18T06:56:39.496Z,4.02
2023-03-18T06:57:39.494Z,3.94
2023-03-18T06:58:39.503Z,4.06
2023-03-18T06:59:39.461Z,4.20
2023-03-18T07:00:39.538Z,4.16
2023-03-18T07:01:39.604Z,4.26
2023-03-18T07:02:39.889Z,4.32
2023-03-18T07:03:39.539Z,4.36
2023-03-18T07:04:39.475Z,4.44
2023-03-18T07:05:39.425Z,4.45
2023-03-18T07:06:39.406Z,4.36
2023-03-18T07:07:39.381Z,4.47
2023-03-18T07:08:39.421Z,4.50
2023-03-18T07:09:39.472Z,4.55
2023-03-18T07:10:39.393Z,4.58
2023-03-18T07:11:39.385Z,4.69
2023-03-18T07:12:39.336Z,4.73
2023-03-18T07:13:39.312Z,4.73
2023-03-18T07:14:39.310Z,4.91
2023-03-18T07:15:39.472Z,4.91
2023-03-18T07:16:39.305Z,5.00
2023-03-18T07:17:39.319Z,5.02
2023-03-18T07:18:39.246Z,5.12
2023-03-18T07:19:39.241Z,5.21
2023-03-18T07:20:39.263Z,5.22
2023-03-18T07:21:39.226Z,5.28
2023-03-18T07:22:39.228Z,5.36
2023-03-18T07:23:39.267Z,5.38
2023-03-18T07:24:39.284Z,5.38
2023-03-18T07:25:39.268Z,5.48
2023-03-18T07:26:39.189Z,5.48
2023-03-18T07:27:39.143Z,5.53
2023-03-18T07:28:39.277Z,5.58
2023-03-18T07:29:39.126Z,5.58
2023-03-18T07:30:39.154Z,5.78
2023-03-18T07:31:39.236Z,5.65
2023-03-18T07:32:39.200Z,5.85
2023-03-18T07:33:39.149Z,5.83
2023-03-18T07:34:39.145Z,5.86
2023-03-18T07:35:39.163Z,5.91
2023-03-18T07:36:39.053Z,6.04
2023-03-18T07:37:39.055Z,6.08
2023-03-18T07:38:39.054Z,6.11
2023-03-18T07:39:39.061Z,6.15
2023-03-18T07:40:39.020Z,6.18
2023-03-18T07:41:39.030Z,6.28
2023-03-18T07:42:39.039Z,6.31
2023-03-18T07:43:39.021Z,6.36
2023-03-18T07:44:39.012Z,6.37
2023-03-18T07:45:39.026Z,6.49
2023-03-18T07:46:38.976Z,6.48
2023-03-18T07:47:38.941Z,6.58
2023-03-18T07:48:38.935Z,6.62
2023-03-18T07:49:39.169Z,6.64
2023-03-18T07:50:38.900Z,6.71
2023-03-18T07:51:38.900Z,6.76
2023-03-18T07:52:38.864Z,6.73
2023-03-18T07:53:38.878Z,6.79
2023-03-18T07:54:38.863Z,6.84
2023-03-18T07:55:38.873Z,6.87
2023-03-18T07:56:38.839Z,6.89
2023-03-18T07:57:38.869Z,6.98
2023-03-18T07:58:38.910Z,6.94
2023-03-18T07:59:38.801Z,6.99
2023-03-18T08:00:38.816Z,7.02
2023-03-18T08:01:38.761Z,7.17
2023-03-18T08:02:38.819Z,7.12
2023-03-18T08:03:38.805Z,7.15
2023-03-18T08:04:38.777Z,7.31
2023-03-18T08:05:38.777Z,7.39
2023-03-18T08:06:38.745Z,7.37
2023-03-18T08:07:38.702Z,7.35
2023-03-18T08:08:38.722Z,7.39
2023-03-18T08:09:38.818Z,7.43
2023-03-18T08:10:38.678Z,7.49
2023-03-18T08:11:38.756Z,7.50
2023-03-18T08:12:52.056Z,7.64
2023-03-18T08:13:39.641Z,7.58
2023-03-18T08:14:38.926Z,7.68
2023-03-18T08:15:38.618Z,7.72
2023-03-18T08:16:38.771Z,7.72
2023-03-18T08:17:38.618Z,7.72
2023-03-18T08:18:38.613Z,7.86
2023-03-18T08:19:38.620Z,7.90
2023-03-18T08:20:38.634Z,7.92
2023-03-18T08:21:38.530Z,7.90
2023-03-18T08:22:38.542Z,7.95
2023-03-18T08:23:38.556Z,7.92
2023-03-18T08:24:38.564Z,8.01
2023-03-18T08:25:38.557Z,8.05
2023-03-18T08:26:38.531Z,8.10
2023-03-18T08:27:38.482Z,8.20
2023-03-18T08:28:38.516Z,8.23
2023-03-18T08:29:38.464Z,8.25
2023-03-18T08:30:38.461Z,8.23
2023-03-18T08:31:38.703Z,8.30
2023-03-18T08:32:38.524Z,8.34
2023-03-18T08:33:38.440Z,8.41
2023-03-18T08:34:38.420Z,8.43
2023-03-18T08:35:38.437Z,8.43
2023-03-18T08:36:38.392Z,8.36
2023-03-18T08:37:38.667Z,8.43
2023-03-18T08:38:38.402Z,8.58
2023-03-18T08:39:38.340Z,8.48
2023-03-18T08:40:38.378Z,8.53
2023-03-18T08:41:38.327Z,8.63
2023-03-18T08:42:38.330Z,8.62
2023-03-18T08:43:39.144Z,8.63
2023-03-18T08:44:38.335Z,8.70
2023-03-18T08:45:38.370Z,8.74
2023-03-18T08:46:38.292Z,8.74
2023-03-18T08:47:38.264Z,8.74
2023-03-18T08:48:38.230Z,8.68
2023-03-18T08:49:38.382Z,8.77
2023-03-18T08:50:38.246Z,8.83
2023-03-18T08:51:38.229Z,8.83
2023-03-18T08:52:38.258Z,8.92
2023-03-18T08:53:38.218Z,8.94
2023-03-18T08:54:38.174Z,8.96
2023-03-18T08:55:38.166Z,9.10
2023-03-18T08:56:38.183Z,9.08
2023-03-18T08:57:38.132Z,9.10
2023-03-18T08:58:46.657Z,9.15
2023-03-18T08:59:38.110Z,9.08
2023-03-18T09:00:38.132Z,9.18
2023-03-18T09:01:38.237Z,9.17
2023-03-18T09:02:38.122Z,9.15
2023-03-18T09:03:38.154Z,9.24
2023-03-18T09:04:38.053Z,9.31
2023-03-18T09:05:38.047Z,9.38
2023-03-18T09:06:38.067Z,9.42
2023-03-18T09:07:38.018Z,9.42
2023-03-18T09:08:38.028Z,9.43
2023-03-18T09:09:43.661Z,9.54
2023-03-18T09:10:39.009Z,9.42
2023-03-18T09:11:38.004Z,9.57
2023-03-18T09:12:37.984Z,9.65
2023-03-18T09:13:39.116Z,9.61
2023-03-18T09:14:37.971Z,9.68
2023-03-18T09:15:37.935Z,9.76
2023-03-18T09:16:38.104Z,9.75
2023-03-18T09:17:51.297Z,9.83
2023-03-18T09:18:38.979Z,9.87
2023-03-18T09:19:37.897Z,9.78
2023-03-18T09:20:37.906Z,9.90
2023-03-18T09:21:37.861Z,9.91
2023-03-18T09:22:37.849Z,9.94
2023-03-18T09:23:37.848Z,10.05
2023-03-18T09:24:37.862Z,10.07
2023-03-18T09:25:37.854Z,10.07
2023-03-18T09:26:37.825Z,10.05
2023-03-18T09:27:37.832Z,10.23
2023-03-18T09:28:37.782Z,10.20
2023-03-18T09:29:37.798Z,10.20
2023-03-18T09:30:37.827Z,10.26
2023-03-18T09:31:37.781Z,10.30
2023-03-18T09:32:37.868Z,10.23
2023-03-18T09:33:37.772Z,10.29
2023-03-18T09:34:37.721Z,10.34
2023-03-18T09:35:37.802Z,10.40
2023-03-18T09:36:37.731Z,10.41
2023-03-18T09:37:37.708Z,10.42
2023-03-18T09:38:37.731Z,10.34
2023-03-18T09:39:37.659Z,10.42
2023-03-18T09:40:38.638Z,10.47
2023-03-18T09:41:37.637Z,10.52
2023-03-18T09:42:37.676Z,10.61
2023-03-18T09:43:37.621Z,10.68
2023-03-18T09:44:37.652Z,10.71
2023-03-18T09:45:37.643Z,10.78
2023-03-18T09:46:37.722Z,10.78
2023-03-18T09:47:37.585Z,10.73
2023-03-18T09:48:37.599Z,10.79
2023-03-18T09:49:37.622Z,10.73
2023-03-18T09:50:37.532Z,10.81
2023-03-18T09:51:37.520Z,10.85
2023-03-18T09:52:37.528Z,10.79
2023-03-18T09:53:37.560Z,10.79
2023-03-18T09:54:37.546Z,10.89
2023-03-18T09:55:37.518Z,10.81
2023-03-18T09:56:37.464Z,10.88
2023-03-18T09:57:37.465Z,10.88
2023-03-18T09:58:37.481Z,10.94
2023-03-18T09:59:37.444Z,10.89
2023-03-18T10:00:37.467Z,11.03
2023-03-18T10:01:37.554Z,11.06
2023-03-18T10:02:37.413Z,11.09
2023-03-18T10:03:37.595Z,11.14
2023-03-18T10:04:37.383Z,11.15
2023-03-18T10:05:37.414Z,11.27
2023-03-18T10:06:37.359Z,11.24
2023-03-18T10:07:37.402Z,11.21
2023-03-18T10:08:37.336Z,11.22
2023-03-18T10:09:37.319Z,11.29
2023-03-18T10:10:37.322Z,11.33
2023-03-18T10:11:37.329Z,11.36
2023-03-18T10:12:37.323Z,11.40
2023-03-18T10:13:37.278Z,11.55
2023-03-18T10:14:37.282Z,11.52
2023-03-18T10:15:37.491Z,11.57
2023-03-18T10:16:37.254Z,11.61
2023-03-18T10:17:37.295Z,11.69
2023-03-18T10:18:37.216Z,11.70
2023-03-18T10:19:37.210Z,11.86
2023-03-18T10:20:37.220Z,11.91
2023-03-18T10:21:37.212Z,11.99
2023-03-18T10:22:37.200Z,11.99
2023-03-18T10:23:37.214Z,12.02
2023-03-18T10:24:37.144Z,12.16
2023-03-18T10:25:37.182Z,12.21
2023-03-18T10:26:37.150Z,12.34
2023-03-18T10:27:37.136Z,12.35
2023-03-18T10:28:37.103Z,12.42
2023-03-18T10:29:37.092Z,12.45
2023-03-18T10:30:37.109Z,12.56
2023-03-18T10:31:37.144Z,12.57
2023-03-18T10:32:49.050Z,12.60
2023-03-18T10:33:38.047Z,12.57
2023-03-18T10:34:37.035Z,12.62
2023-03-18T10:35:37.243Z,12.71
2023-03-18T10:36:37.016Z,12.70
2023-03-18T10:37:37.129Z,12.82
2023-03-18T10:38:37.026Z,12.85
2023-03-18T10:39:37.011Z,12.89
2023-03-18T10:40:36.968Z,12.89
2023-03-18T10:41:36.988Z,12.93
2023-03-18T10:42:36.956Z,12.96
2023-03-18T10:43:36.940Z,13.05
2023-03-18T10:44:37.003Z,13.00
2023-03-18T10:45:36.910Z,13.12
2023-03-18T10:46:37.117Z,13.14
2023-03-18T10:47:37.019Z,13.12
2023-03-18T10:48:36.878Z,13.08
2023-03-18T10:49:36.883Z,13.03
2023-03-18T10:50:37.056Z,13.17
2023-03-18T10:51:36.841Z,13.11
2023-03-18T10:52:36.859Z,13.17
2023-03-18T10:53:36.873Z,13.22
2023-03-18T10:54:36.877Z,13.22
2023-03-18T10:55:36.815Z,13.14
2023-03-18T10:56:36.830Z,13.23
2023-03-18T10:57:36.775Z,13.19
2023-03-18T10:58:36.797Z,13.22
2023-03-18T10:59:36.768Z,13.32
2023-03-18T11:00:36.847Z,13.30
2023-03-18T11:01:36.775Z,13.29
2023-03-18T11:02:36.769Z,13.41
2023-03-18T11:03:36.744Z,13.44
2023-03-18T11:04:36.699Z,13.48
2023-03-18T11:05:36.681Z,13.57
2023-03-18T11:06:36.713Z,13.67
2023-03-18T11:07:36.659Z,13.62
2023-03-18T11:08:36.714Z,13.75
2023-03-18T11:09:36.664Z,13.77
2023-03-18T11:10:36.851Z,13.88
2023-03-18T11:11:36.659Z,13.91
2023-03-18T11:12:36.620Z,13.92
2023-03-18T11:13:36.591Z,13.96
2023-03-18T11:14:36.639Z,13.97
2023-03-18T11:15:36.581Z,13.92
2023-03-18T11:16:36.558Z,13.96
2023-03-18T11:17:36.561Z,14.07
2023-03-18T11:18:36.535Z,14.07
2023-03-18T11:19:36.572Z,14.18
2023-03-18T11:20:36.510Z,14.15
2023-03-18T11:21:36.534Z,14.14
2023-03-18T11:22:36.494Z,14.28
2023-03-18T11:23:36.490Z,14.22
2023-03-18T11:24:36.663Z,14.22
2023-03-18T11:25:36.490Z,14.25
2023-03-18T11:26:36.443Z,14.35
2023-03-18T11:27:36.513Z,14.35
2023-03-18T11:28:36.437Z,14.37
2023-03-18T11:29:36.451Z,14.45
2023-03-18T11:30:36.508Z,14.47
2023-03-18T11:31:36.456Z,14.52
2023-03-18T11:32:36.428Z,14.55
2023-03-18T11:33:36.395Z,14.47
2023-03-18T11:34:36.365Z,14.62
2023-03-18T11:35:36.412Z,14.70
2023-03-18T11:36:36.328Z,14.69
2023-03-18T11:37:36.325Z,14.80
2023-03-18T11:38:36.303Z,14.69
2023-03-18T11:39:36.343Z,14.68
2023-03-18T11:40:36.306Z,14.72
2023-03-18T11:41:36.284Z,14.78
2023-03-18T11:42:36.259Z,14.81
2023-03-18T11:43:36.284Z,14.83
2023-03-18T11:44:36.231Z,14.94
2023-03-18T11:45:36.257Z,14.92
2023-03-18T11:46:36.283Z,15.06
2023-03-18T11:47:36.198Z,15.09
2023-03-18T11:48:36.224Z,15.10
2023-03-18T11:49:36.204Z,15.13
2023-03-18T11:50:36.170Z,15.31
2023-03-18T11:51:36.205Z,15.41
2023-03-18T11:52:36.139Z,15.47
2023-03-18T11:53:36.180Z,15.53
2023-03-18T11:54:36.148Z,15.54
2023-03-18T11:55:36.108Z,15.57
2023-03-18T11:56:36.128Z,15.56
2023-03-18T11:57:36.136Z,15.56
2023-03-18T11:58:36.071Z,15.53
2023-03-18T11:59:36.079Z,15.56
2023-03-18T12:00:36.085Z,15.56
2023-03-18T12:01:36.043Z,15.54
2023-03-18T12:02:36.058Z,15.51
2023-03-18T12:03:36.056Z,15.57
2023-03-18T12:04:36.052Z,15.65
2023-03-18T12:05:35.997Z,15.65
2023-03-18T12:06:36.013Z,15.64
2023-03-18T12:07:38.183Z,15.65
2023-03-18T12:08:35.969Z,15.62
2023-03-18T12:09:35.996Z,15.64
2023-03-18T12:10:35.994Z,15.59
2023-03-18T12:11:35.956Z,15.62
2023-03-18T12:12:35.922Z,15.62
2023-03-18T12:13:37.540Z,15.51
2023-03-18T12:14:35.889Z,15.59
2023-03-18T12:15:35.932Z,15.60
2023-03-18T12:16:35.902Z,15.62
2023-03-18T12:17:35.857Z,15.65
2023-03-18T12:18:35.854Z,15.71
2023-03-18T12:19:35.865Z,15.76
2023-03-18T12:20:35.942Z,15.75
2023-03-18T12:21:35.815Z,15.87
2023-03-18T12:22:35.947Z,15.87
2023-03-18T12:23:35.792Z,15.92
2023-03-18T12:24:35.784Z,15.97
2023-03-18T12:25:35.803Z,15.94
2023-03-18T12:26:35.754Z,15.93
2023-03-18T12:27:35.808Z,15.92
2023-03-18T12:28:35.756Z,16.05
2023-03-18T12:29:35.744Z,15.94
2023-03-18T12:30:35.720Z,16.07
2023-03-18T12:31:35.778Z,16.00
2023-03-18T12:32:35.766Z,16.07
2023-03-18T12:33:35.721Z,16.02
2023-03-18T12:34:35.677Z,16.09
2023-03-18T12:35:36.100Z,16.25
2023-03-18T12:36:35.682Z,16.21
2023-03-18T12:37:35.641Z,16.28
2023-03-18T12:38:35.685Z,16.24
2023-03-18T12:39:35.662Z,16.27
2023-03-18T12:40:35.652Z,16.21
2023-03-18T12:41:37.223Z,16.24
2023-03-18T12:42:35.608Z,16.14
2023-03-18T12:43:35.562Z,16.24
2023-03-18T12:44:35.606Z,16.30
2023-03-18T12:45:35.585Z,16.34
2023-03-18T12:46:35.578Z,16.28
2023-03-18T12:47:37.172Z,16.34
2023-03-18T12:48:44.176Z,16.39
2023-03-18T12:49:36.535Z,16.24
2023-03-18T12:50:35.510Z,16.28
2023-03-18T12:51:35.492Z,16.17
2023-03-18T12:52:36.203Z,16.24
2023-03-18T12:53:35.470Z,16.20
2023-03-18T12:54:35.438Z,16.15
2023-03-18T12:55:35.769Z,16.15
2023-03-18T12:56:35.441Z,16.24
2023-03-18T12:57:35.426Z,16.23
2023-03-18T12:58:35.408Z,16.24
2023-03-18T12:59:35.383Z,16.38
2023-03-18T13:00:35.879Z,16.31
2023-03-18T13:01:35.440Z,16.39
2023-03-18T13:02:35.467Z,16.34
2023-03-18T13:03:35.355Z,16.39
2023-03-18T13:04:35.390Z,16.43
2023-03-18T13:05:35.380Z,16.46
2023-03-18T13:06:35.297Z,16.48
2023-03-18T13:07:35.375Z,16.46
2023-03-18T13:08:35.283Z,16.35
2023-03-18T13:09:35.276Z,16.42
2023-03-18T13:10:35.252Z,16.43